Time;durP1;ratioP1;P1;durP2;ratioP2;P2;SDS_P1;SDS_P2;PMS_P1;PMS_P2;Temp;Humidity;BMP_temperature;BMP_pressure;BME280_temperature;BME280_humidity;BME280_pressure;Samples;Min_cycle;Max_cycle;Signal;HPM_P1;HPM_P2
2022/08/02 00:01:22;;;;;;;;;;;22.20;68.40;;;;;;6215353;23;1026;-72
2022/08/02 00:03:48;;;;;;;;;;;22.20;68.40;;;;;;6216603;23;1176;-73
2022/08/02 00:06:13;;;;;;;;;;;22.20;68.40;;;;;;6189908;23;927;-70
2022/08/02 00:08:39;;;;;;;;;;;22.20;68.40;;;;;;6217356;23;1940;-71
2022/08/02 00:11:04;;;;;;;;;;;22.20;68.40;;;;;;6215311;23;856;-74
2022/08/02 00:13:29;;;;;;;;;;;22.20;68.40;;;;;;6189680;23;1009;-70
2022/08/02 00:15:55;;;;;;;;;;;22.20;68.40;;;;;;6217174;23;1179;-70
2022/08/02 00:18:20;;;;;;;;;;;22.20;68.40;;;;;;6190041;23;871;-72
2022/08/02 00:20:46;;;;;;;;;;;22.20;68.40;;;;;;6189057;23;1186;-71
2022/08/02 00:23:11;;;;;;;;;;;22.20;68.40;;;;;;6189680;23;847;-71
2022/08/02 00:25:37;;;;;;;;;;;22.20;68.40;;;;;;6186897;23;1901;-71
2022/08/02 00:28:02;;;;;;;;;;;22.20;68.50;;;;;;6216339;23;1889;-71
2022/08/02 00:30:28;;;;;;;;;;;22.20;68.40;;;;;;6215923;23;914;-72
2022/08/02 00:32:53;;;;;;;;;;;22.20;68.40;;;;;;6216238;23;832;-70
2022/08/02 00:35:19;;;;;;;;;;;22.20;68.40;;;;;;6215650;23;1297;-71
2022/08/02 00:37:44;;;;;;;;;;;22.20;68.50;;;;;;6216045;23;772;-71
2022/08/02 00:40:10;;;;;;;;;;;22.20;68.50;;;;;;6215669;23;780;-72
2022/08/02 00:42:35;;;;;;;;;;;22.20;68.40;;;;;;6189244;23;858;-72
2022/08/02 00:45:01;;;;;;;;;;;22.20;68.40;;;;;;6215469;23;1211;-72
2022/08/02 00:47:26;;;;;;;;;;;22.20;68.50;;;;;;6216381;23;809;-72
2022/08/02 00:49:51;;;;;;;;;;;22.20;68.50;;;;;;6188519;23;1897;-72
2022/08/02 00:52:17;;;;;;;;;;;22.20;68.50;;;;;;6189214;23;1021;-72
2022/08/02 00:54:42;;;;;;;;;;;22.20;68.50;;;;;;6216280;23;1236;-72
2022/08/02 00:57:08;;;;;;;;;;;22.20;68.50;;;;;;6216259;23;772;-73
2022/08/02 00:59:33;;;;;;;;;;;22.20;68.50;;;;;;6215995;23;780;-73
2022/08/02 01:01:59;;;;;;;;;;;22.20;68.50;;;;;;6215802;23;926;-73
2022/08/02 01:04:27;;;;;;;;;;;22.20;68.50;;;;;;6215276;23;1211;-72
2022/08/02 01:06:52;;;;;;;;;;;22.20;68.50;;;;;;6215928;23;788;-72
2022/08/02 01:09:18;;;;;;;;;;;22.20;68.50;;;;;;6189274;23;1893;-70
2022/08/02 01:11:43;;;;;;;;;;;22.20;68.50;;;;;;6188417;23;871;-70
2022/08/02 01:14:09;;;;;;;;;;;22.20;68.50;;;;;;6215705;23;886;-70
2022/08/02 01:16:36;;;;;;;;;;;22.20;68.50;;;;;;6189177;23;1171;-69
2022/08/02 01:19:09;;;;;;;;;;;22.20;68.50;;;;;;6189141;23;958;-69
2022/08/02 01:21:38;;;;;;;;;;;22.20;68.50;;;;;;6215298;23;1009;-70
2022/08/02 01:24:15;;;;;;;;;;;22.20;68.50;;;;;;6163425;23;1206;-70
2022/08/02 01:26:42;;;;;;;;;;;22.20;68.50;;;;;;6189213;23;830;-71
2022/08/02 01:29:07;;;;;;;;;;;22.20;68.50;;;;;;6189232;23;1932;-71
2022/08/02 01:31:33;;;;;;;;;;;22.20;68.50;;;;;;6215270;23;1013;-71
2022/08/02 01:34:10;;;;;;;;;;;22.20;68.50;;;;;;6189130;23;808;-71
2022/08/02 01:36:40;;;;;;;;;;;22.20;68.60;;;;;;6188381;23;1211;-70
2022/08/02 01:39:06;;;;;;;;;;;22.20;68.60;;;;;;6188871;23;808;-71
2022/08/02 01:41:32;;;;;;;;;;;22.20;68.60;;;;;;6188565;23;1124;-70
2022/08/02 01:43:58;;;;;;;;;;;22.20;68.60;;;;;;6188665;23;784;-73
2022/08/02 01:46:24;;;;;;;;;;;22.20;68.50;;;;;;6215126;23;1250;-73
2022/08/02 01:48:49;;;;;;;;;;;22.20;68.60;;;;;;6188952;23;1881;-71
2022/08/02 01:51:15;;;;;;;;;;;22.20;68.60;;;;;;6188234;23;916;-71
2022/08/02 01:53:41;;;;;;;;;;;22.20;68.60;;;;;;6215535;23;843;-71
2022/08/02 01:56:06;;;;;;;;;;;22.20;68.60;;;;;;6215253;23;1257;-72
2022/08/02 01:58:33;;;;;;;;;;;22.20;68.60;;;;;;6188772;23;1038;-72
2022/08/02 02:00:59;;;;;;;;;;;22.20;68.60;;;;;;6163578;23;1160;-72
2022/08/02 02:03:24;;;;;;;;;;;22.20;69.30;;;;;;6215475;23;835;-73
2022/08/02 02:05:50;;;;;;;;;;;22.20;68.60;;;;;;6188181;23;1254;-73
2022/08/02 02:08:18;;;;;;;;;;;22.20;68.60;;;;;;6188791;23;1952;-73
2022/08/02 02:10:43;;;;;;;;;;;22.20;68.60;;;;;;6187971;23;998;-73
2022/08/02 02:13:11;;;;;;;;;;;22.20;68.50;;;;;;6215312;23;1001;-73
2022/08/02 02:15:40;;;;;;;;;;;22.20;68.60;;;;;;6217001;23;1299;-72
2022/08/02 02:18:06;;;;;;;;;;;22.20;68.60;;;;;;6189617;23;903;-72
2022/08/02 02:20:31;;;;;;;;;;;22.20;68.70;;;;;;6188416;23;1025;-71
2022/08/02 02:22:57;;;;;;;;;;;22.20;68.60;;;;;;6189015;23;1049;-73
2022/08/02 02:25:22;;;;;;;;;;;22.20;68.60;;;;;;6214835;23;1285;-74
2022/08/02 02:27:53;;;;;;;;;;;22.20;68.60;;;;;;6214755;23;1892;-73
2022/08/02 02:30:18;;;;;;;;;;;22.20;68.60;;;;;;6213043;23;706;-73
2022/08/02 02:32:44;;;;;;;;;;;22.20;68.50;;;;;;6213618;23;823;-71
2022/08/02 02:35:10;;;;;;;;;;;22.20;68.60;;;;;;6213497;23;1289;-72
2022/08/02 02:37:36;;;;;;;;;;;22.20;68.60;;;;;;6187935;23;855;-73
2022/08/02 02:40:01;;;;;;;;;;;22.20;68.70;;;;;;6213356;23;823;-73
2022/08/02 02:42:27;;;;;;;;;;;22.20;68.70;;;;;;6213515;23;1210;-73
2022/08/02 02:44:53;;;;;;;;;;;22.20;68.70;;;;;;6213321;23;1290;-72
2022/08/02 02:47:18;;;;;;;;;;;22.20;68.70;;;;;;6213385;23;823;-73
2022/08/02 02:49:44;;;;;;;;;;;22.20;68.70;;;;;;6214613;23;1938;-73
2022/08/02 02:52:09;;;;;;;;;;;22.20;68.70;;;;;;6212643;23;888;-73
2022/08/02 02:54:35;;;;;;;;;;;22.20;68.70;;;;;;6213593;23;1222;-73
2022/08/02 02:57:00;;;;;;;;;;;22.20;68.70;;;;;;6213144;23;801;-73
2022/08/02 02:59:26;;;;;;;;;;;22.20;68.70;;;;;;6215228;23;756;-73
2022/08/02 03:01:51;;;;;;;;;;;22.20;68.70;;;;;;6212631;23;948;-73
2022/08/02 03:04:17;;;;;;;;;;;22.20;68.70;;;;;;6213217;23;1203;-72
2022/08/02 03:06:42;;;;;;;;;;;22.20;68.70;;;;;;6213227;23;793;-73
2022/08/02 03:09:08;;;;;;;;;;;22.20;68.80;;;;;;6212838;23;1938;-72
2022/08/02 03:11:35;;;;;;;;;;;22.20;68.70;;;;;;6214067;23;772;-73
2022/08/02 03:14:01;;;;;;;;;;;22.20;68.80;;;;;;6213434;23;891;-72
2022/08/02 03:16:29;;;;;;;;;;;22.20;68.70;;;;;;6214680;23;1189;-72
2022/08/02 03:18:55;;;;;;;;;;;22.20;68.70;;;;;;6212925;23;832;-73
2022/08/02 03:21:20;;;;;;;;;;;22.20;68.70;;;;;;6212816;23;1420;-72
2022/08/02 03:23:46;;;;;;;;;;;22.20;68.70;;;;;;6213465;23;835;-73
2022/08/02 03:26:12;;;;;;;;;;;22.20;68.70;;;;;;6212637;23;1246;-72
2022/08/02 03:28:38;;;;;;;;;;;22.20;68.70;;;;;;6213986;23;1901;-73
2022/08/02 03:31:03;;;;;;;;;;;22.20;68.70;;;;;;6215811;23;918;-72
2022/08/02 03:33:29;;;;;;;;;;;22.20;68.70;;;;;;6216370;23;808;-72
2022/08/02 03:35:56;;;;;;;;;;;22.20;68.70;;;;;;6215216;23;1153;-73
2022/08/02 03:38:21;;;;;;;;;;;22.20;68.70;;;;;;6215490;23;828;-72
2022/08/02 03:40:47;;;;;;;;;;;22.20;68.70;;;;;;6216137;23;994;-73
2022/08/02 03:43:12;;;;;;;;;;;22.20;68.70;;;;;;6215237;23;883;-72
2022/08/02 03:45:38;;;;;;;;;;;22.20;68.70;;;;;;6215087;23;1218;-73
2022/08/02 03:48:04;;;;;;;;;;;22.20;68.70;;;;;;6215160;23;1916;-72
2022/08/02 03:50:29;;;;;;;;;;;22.20;68.70;;;;;;6214186;23;1018;-73
2022/08/02 03:52:55;;;;;;;;;;;22.20;68.70;;;;;;6215013;23;769;-73
2022/08/02 03:55:20;;;;;;;;;;;22.20;68.70;;;;;;6214870;23;1302;-72
2022/08/02 03:57:46;;;;;;;;;;;22.20;68.70;;;;;;6216311;23;809;-72
2022/08/02 04:00:12;;;;;;;;;;;22.20;68.70;;;;;;6214260;23;903;-73
2022/08/02 04:02:37;;;;;;;;;;;22.20;68.80;;;;;;6214787;23;1392;-73
2022/08/02 04:05:03;;;;;;;;;;;22.20;68.70;;;;;;6215249;23;1281;-73
2022/08/02 04:07:29;;;;;;;;;;;22.20;68.70;;;;;;6215977;23;800;-72
2022/08/02 04:09:54;;;;;;;;;;;22.20;68.80;;;;;;6214040;23;1889;-73
2022/08/02 04:12:20;;;;;;;;;;;22.20;68.80;;;;;;6216128;23;1053;-72
2022/08/02 04:14:45;;;;;;;;;;;22.20;68.80;;;;;;6216206;23;1253;-73
2022/08/02 04:17:11;;;;;;;;;;;22.20;68.70;;;;;;6216040;23;698;-73
2022/08/02 04:19:38;;;;;;;;;;;22.20;68.70;;;;;;6216703;23;807;-72
2022/08/02 04:22:03;;;;;;;;;;;22.20;69.20;;;;;;6213696;23;796;-73
2022/08/02 04:24:31;;;;;;;;;;;22.20;68.80;;;;;;6214146;23;1226;-73
2022/08/02 04:26:56;;;;;;;;;;;22.20;68.80;;;;;;6214989;23;808;-70
2022/08/02 04:29:22;;;;;;;;;;;22.20;68.80;;;;;;6214398;23;1893;-71
2022/08/02 04:31:48;;;;;;;;;;;22.20;68.80;;;;;;6188282;23;1172;-69
2022/08/02 04:34:13;;;;;;;;;;;22.20;68.80;;;;;;6189419;23;869;-69
2022/08/02 04:36:38;;;;;;;;;;;22.20;68.80;;;;;;6214812;23;1195;-70
2022/08/02 04:39:04;;;;;;;;;;;22.20;68.80;;;;;;6206821;23;784;-69
2022/08/02 04:41:36;;;;;;;;;;;22.20;68.80;;;;;;6207827;23;1034;-70
2022/08/02 04:44:02;;;;;;;;;;;22.20;68.80;;;;;;6210729;23;764;-71
2022/08/02 04:46:27;;;;;;;;;;;22.20;68.80;;;;;;6213251;23;1298;-70
2022/08/02 04:48:53;;;;;;;;;;;22.20;68.80;;;;;;6212358;23;1893;-73
2022/08/02 04:51:18;;;;;;;;;;;22.20;68.80;;;;;;6209888;23;1163;-70
2022/08/02 04:53:44;;;;;;;;;;;22.20;68.80;;;;;;6214776;23;942;-69
2022/08/02 04:56:10;;;;;;;;;;;22.20;68.80;;;;;;6213267;23;1281;-69
2022/08/02 04:58:35;;;;;;;;;;;22.20;68.80;;;;;;6215129;23;803;-69
2022/08/02 05:01:01;;;;;;;;;;;22.20;68.80;;;;;;6213592;23;772;-66
2022/08/02 05:03:26;;;;;;;;;;;22.20;68.80;;;;;;6215844;23;915;-66
2022/08/02 05:05:52;;;;;;;;;;;22.20;68.80;;;;;;6215746;23;1273;-68
2022/08/02 05:08:17;;;;;;;;;;;22.20;68.70;;;;;;6216223;23;1889;-67
2022/08/02 05:10:43;;;;;;;;;;;22.20;67.70;;;;;;6213902;23;976;-70
2022/08/02 05:13:08;;;;;;;;;;;22.20;66.40;;;;;;6216116;23;785;-70
2022/08/02 05:15:33;;;;;;;;;;;22.20;66.00;;;;;;6215492;23;1202;-71
2022/08/02 05:17:59;;;;;;;;;;;22.20;65.60;;;;;;6216295;23;839;-69
2022/08/02 05:20:24;;;;;;;;;;;22.20;66.10;;;;;;6215874;23;813;-70
2022/08/02 05:22:50;;;;;;;;;;;22.10;65.20;;;;;;6214054;23;883;-70
2022/08/02 05:25:15;;;;;;;;;;;22.10;65.50;;;;;;6215610;23;1267;-69
2022/08/02 05:27:41;;;;;;;;;;;22.10;64.50;;;;;;6215780;23;844;-70
2022/08/02 05:30:06;;;;;;;;;;;22.10;64.50;;;;;;6213391;23;1938;-71
2022/08/02 05:32:32;;;;;;;;;;;22.10;64.20;;;;;;6188866;23;1096;-70
2022/08/02 05:34:59;;;;;;;;;;;22.10;64.90;;;;;;6214207;23;1235;-70
2022/08/02 05:37:24;;;;;;;;;;;22.10;65.30;;;;;;6215971;23;804;-70
2022/08/02 05:39:50;;;;;;;;;;;22.10;65.20;;;;;;6215505;23;823;-72
2022/08/02 05:42:15;;;;;;;;;;;22.10;65.10;;;;;;6213684;23;1076;-69
2022/08/02 05:44:41;;;;;;;;;;;22.10;64.90;;;;;;6213318;23;1199;-70
2022/08/02 05:47:06;;;;;;;;;;;22.10;64.70;;;;;;6214095;23;1249;-69
2022/08/02 05:49:31;;;;;;;;;;;22.10;64.90;;;;;;6215828;23;1884;-69
2022/08/02 05:52:16;;;;;;;;;;;22.10;64.90;;;;;;6214198;23;1006;-70
2022/08/02 05:54:46;;;;;;;;;;;22.10;64.00;;;;;;6214987;23;1273;-70
2022/08/02 05:57:37;;;;;;;;;;;22.10;63.90;;;;;;6213846;23;1006;-71
2022/08/02 06:00:08;;;;;;;;;;;22.10;64.30;;;;;;6210195;23;999;-70
2022/08/02 06:02:49;;;;;;;;;;;22.00;63.40;;;;;;6215410;23;842;-70
2022/08/02 06:05:21;;;;;;;;;;;22.00;63.90;;;;;;6215097;23;1203;-70
2022/08/02 06:07:46;;;;;;;;;;;22.00;63.20;;;;;;6215581;23;838;-70
2022/08/02 06:10:12;;;;;;;;;;;22.00;62.90;;;;;;6214521;23;1885;-69
2022/08/02 06:12:51;;;;;;;;;;;22.00;62.60;;;;;;6213938;23;1331;-69
2022/08/02 06:15:17;;;;;;;;;;;22.00;61.40;;;;;;6213767;23;1289;-65
2022/08/02 06:17:42;;;;;;;;;;;22.00;61.70;;;;;;6213981;23;812;-67
2022/08/02 06:20:09;;;;;;;;;;;22.00;61.80;;;;;;6214537;23;766;-67
2022/08/02 06:22:35;;;;;;;;;;;22.00;62.00;;;;;;6213853;23;884;-68
2022/08/02 06:25:00;;;;;;;;;;;22.00;62.50;;;;;;6214240;23;1219;-70
2022/08/02 06:27:26;;;;;;;;;;;22.00;62.20;;;;;;6214915;23;876;-68
2022/08/02 06:29:51;;;;;;;;;;;22.00;61.90;;;;;;6213476;23;1900;-70
2022/08/02 06:32:17;;;;;;;;;;;22.00;60.80;;;;;;6213427;23;895;-69
2022/08/02 06:34:43;;;;;;;;;;;22.00;61.10;;;;;;6214616;23;1227;-69
2022/08/02 06:37:09;;;;;;;;;;;22.00;60.60;;;;;;6215245;23;824;-69
2022/08/02 06:39:42;;;;;;;;;;;22.00;60.50;;;;;;6215200;23;868;-70
2022/08/02 06:42:10;;;;;;;;;;;22.00;61.20;;;;;;6212814;23;851;-70
2022/08/02 06:44:37;;;;;;;;;;;22.00;60.00;;;;;;6214958;23;1220;-69
2022/08/02 06:47:03;;;;;;;;;;;22.00;60.10;;;;;;6214838;23;839;-69
2022/08/02 06:49:28;;;;;;;;;;;22.00;60.40;;;;;;6213518;23;1953;-69
2022/08/02 06:51:54;;;;;;;;;;;22.00;60.50;;;;;;6214271;23;989;-69
2022/08/02 06:54:20;;;;;;;;;;;22.00;61.30;;;;;;6214751;23;1281;-69
2022/08/02 06:56:46;;;;;;;;;;;22.00;61.50;;;;;;6212978;23;819;-69
2022/08/02 06:59:14;;;;;;;;;;;22.00;61.70;;;;;;6213041;23;1526;-69
2022/08/02 07:01:40;;;;;;;;;;;22.00;61.90;;;;;;6212706;23;789;-69
2022/08/02 07:04:06;;;;;;;;;;;22.00;61.30;;;;;;6213052;23;848;-69
2022/08/02 07:06:31;;;;;;;;;;;22.00;61.90;;;;;;6212865;23;1253;-69
2022/08/02 07:08:56;;;;;;;;;;;22.00;61.90;;;;;;6213689;23;1880;-70
2022/08/02 07:11:22;;;;;;;;;;;22.00;62.10;;;;;;6212700;23;1002;-70
2022/08/02 07:13:48;;;;;;;;;;;22.00;62.00;;;;;;6213628;23;942;-70
2022/08/02 07:16:13;;;;;;;;;;;22.00;61.60;;;;;;6212547;23;1200;-69
2022/08/02 07:18:39;;;;;;;;;;;22.00;61.80;;;;;;6213594;23;777;-70
2022/08/02 07:21:05;;;;;;;;;;;22.00;61.40;;;;;;6187692;23;1255;-70
2022/08/02 07:23:30;;;;;;;;;;;22.00;60.80;;;;;;6215127;23;808;-70
2022/08/02 07:25:56;;;;;;;;;;;22.00;60.70;;;;;;6214032;23;1266;-70
2022/08/02 07:28:21;;;;;;;;;;;22.00;60.10;;;;;;6212921;23;1897;-70
2022/08/02 07:30:47;;;;;;;;;;;22.00;60.20;;;;;;6214336;23;734;-70
2022/08/02 07:33:12;;;;;;;;;;;22.00;60.70;;;;;;6214930;23;781;-70
2022/08/02 07:35:38;;;;;;;;;;;22.00;60.70;;;;;;6213133;23;1275;-70
2022/08/02 07:38:03;;;;;;;;;;;22.00;60.80;;;;;;6213412;23;927;-70
2022/08/02 07:40:28;;;;;;;;;;;22.10;61.00;;;;;;6213958;23;1014;-70
2022/08/02 07:42:54;;;;;;;;;;;22.10;60.90;;;;;;6213237;23;1330;-70
2022/08/02 07:45:20;;;;;;;;;;;22.10;61.00;;;;;;6213060;23;1215;-70
2022/08/02 07:47:46;;;;;;;;;;;22.10;61.10;;;;;;6213138;23;804;-70
2022/08/02 07:50:12;;;;;;;;;;;22.10;60.30;;;;;;6213060;23;1884;-70
2022/08/02 07:52:38;;;;;;;;;;;22.10;60.80;;;;;;6215003;23;879;-70
2022/08/02 07:55:04;;;;;;;;;;;22.10;61.20;;;;;;6214527;23;1289;-70
2022/08/02 07:57:29;;;;;;;;;;;22.10;61.20;;;;;;6213251;23;1060;-70
2022/08/02 07:59:55;;;;;;;;;;;22.10;61.40;;;;;;6214146;23;788;-70
2022/08/02 08:02:22;;;;;;;;;;;22.10;61.50;;;;;;6212874;23;1372;-70
2022/08/02 08:04:47;;;;;;;;;;;22.10;61.70;;;;;;6214767;23;1206;-70
2022/08/02 08:07:13;;;;;;;;;;;22.10;61.70;;;;;;6214407;23;918;-70
2022/08/02 08:09:40;;;;;;;;;;;22.10;61.70;;;;;;6214578;23;1888;-70
2022/08/02 08:12:06;;;;;;;;;;;22.10;61.50;;;;;;6213940;23;867;-70
2022/08/02 08:14:31;;;;;;;;;;;22.20;61.30;;;;;;6215008;23;1266;-70
2022/08/02 08:16:57;;;;;;;;;;;22.10;60.80;;;;;;6216495;23;812;-70
2022/08/02 08:19:22;;;;;;;;;;;22.10;60.90;;;;;;6216079;23;881;-70
2022/08/02 08:21:48;;;;;;;;;;;22.10;61.10;;;;;;6214492;23;833;-71
2022/08/02 08:24:13;;;;;;;;;;;22.10;61.20;;;;;;6214990;23;817;-70
2022/08/02 08:26:39;;;;;;;;;;;22.10;61.20;;;;;;6216067;23;1227;-70
2022/08/02 08:29:05;;;;;;;;;;;22.10;60.90;;;;;;6215807;23;1893;-71
2022/08/02 08:31:31;;;;;;;;;;;22.10;60.90;;;;;;6214717;23;824;-72
2022/08/02 08:33:57;;;;;;;;;;;22.10;60.80;;;;;;6216277;23;796;-70
2022/08/02 08:36:22;;;;;;;;;;;22.10;61.40;;;;;;6216314;23;1164;-71
2022/08/02 08:38:49;;;;;;;;;;;22.10;61.40;;;;;;6216364;23;934;-71
2022/08/02 08:41:15;;;;;;;;;;;22.10;60.90;;;;;;6215819;23;831;-70
2022/08/02 08:43:40;;;;;;;;;;;22.20;60.90;;;;;;6215777;23;757;-67
2022/08/02 08:46:07;;;;;;;;;;;22.10;61.10;;;;;;6214881;23;1170;-70
2022/08/02 08:48:33;;;;;;;;;;;22.20;61.10;;;;;;6214291;23;1936;-65
2022/08/02 08:51:12;;;;;;;;;;;22.20;61.20;;;;;;6211696;23;820;-66
2022/08/02 08:53:38;;;;;;;;;;;22.20;61.20;;;;;;6189927;23;793;-66
2022/08/02 08:56:04;;;;;;;;;;;22.20;59.80;;;;;;6213952;23;1198;-69
2022/08/02 08:58:29;;;;;;;;;;;22.20;59.60;;;;;;6213987;23;859;-66
2022/08/02 09:00:55;;;;;;;;;;;22.20;58.90;;;;;;6213858;23;789;-66
2022/08/02 09:03:20;;;;;;;;;;;22.20;58.60;;;;;;6214331;23;896;-66
2022/08/02 09:05:46;;;;;;;;;;;22.20;58.50;;;;;;6214156;23;2055;-66
2022/08/02 09:08:11;;;;;;;;;;;22.20;58.50;;;;;;6215900;23;1924;-65
2022/08/02 09:10:40;;;;;;;;;;;22.30;58.00;;;;;;6215910;23;899;-66
2022/08/02 09:13:14;;;;;;;;;;;22.30;58.70;;;;;;6216484;23;759;-70
2022/08/02 09:15:40;;;;;;;;;;;22.30;59.00;;;;;;6189733;23;1305;-68
2022/08/02 09:18:06;;;;;;;;;;;22.30;59.60;;;;;;6216084;23;851;-68
2022/08/02 09:20:32;;;;;;;;;;;22.30;59.20;;;;;;6213520;23;769;-67
2022/08/02 09:23:04;;;;;;;;;;;22.30;59.00;;;;;;6215581;23;839;-67
2022/08/02 09:25:31;;;;;;;;;;;22.30;59.00;;;;;;6215337;23;1201;-66
2022/08/02 09:27:56;;;;;;;;;;;22.30;58.90;;;;;;6214279;23;831;-66
2022/08/02 09:30:22;;;;;;;;;;;22.30;59.40;;;;;;6188365;23;1889;-69
2022/08/02 09:32:48;;;;;;;;;;;22.30;59.30;;;;;;6214464;23;808;-67
2022/08/02 09:35:29;;;;;;;;;;;22.30;60.00;;;;;;6215412;23;1258;-66
2022/08/02 09:38:01;;;;;;;;;;;22.30;60.20;;;;;;6214227;23;788;-66
2022/08/02 09:40:34;;;;;;;;;;;22.30;59.50;;;;;;6213520;23;1426;-66
2022/08/02 09:42:59;;;;;;;;;;;22.30;58.70;;;;;;6215670;23;790;-66
2022/08/02 09:45:29;;;;;;;;;;;22.30;58.10;;;;;;6215623;23;1206;-66
2022/08/02 09:47:54;;;;;;;;;;;22.30;57.60;;;;;;6213927;23;1037;-66
2022/08/02 09:50:19;;;;;;;;;;;22.30;58.00;;;;;;6214992;23;1947;-66
2022/08/02 09:52:45;;;;;;;;;;;22.30;58.30;;;;;;6215753;23;1026;-66
2022/08/02 09:55:10;;;;;;;;;;;22.30;58.50;;;;;;6214032;23;1269;-65
2022/08/02 09:57:37;;;;;;;;;;;22.40;58.90;;;;;;6215745;23;788;-67
2022/08/02 10:00:05;;;;;;;;;;;22.40;58.90;;;;;;6213238;23;832;-66
2022/08/02 10:02:30;;;;;;;;;;;22.40;58.90;;;;;;6214236;23;816;-69
2022/08/02 10:04:56;;;;;;;;;;;22.40;58.90;;;;;;6215091;23;1215;-66
2022/08/02 10:07:21;;;;;;;;;;;22.40;58.90;;;;;;6215412;23;694;-65
2022/08/02 10:09:47;;;;;;;;;;;22.40;58.60;;;;;;6213714;23;1892;-65
2022/08/02 10:12:13;;;;;;;;;;;22.40;58.60;;;;;;6215088;23;820;-69
2022/08/02 10:14:38;;;;;;;;;;;22.40;58.40;;;;;;6215455;23;1209;-66
2022/08/02 10:17:04;;;;;;;;;;;22.40;58.40;;;;;;6213670;23;943;-66
2022/08/02 10:19:29;;;;;;;;;;;22.40;58.20;;;;;;6213532;23;916;-66
2022/08/02 10:21:56;;;;;;;;;;;22.40;57.90;;;;;;6213395;23;793;-66
2022/08/02 10:24:22;;;;;;;;;;;22.50;57.20;;;;;;6188325;23;1465;-66
2022/08/02 10:26:47;;;;;;;;;;;22.50;56.60;;;;;;6211193;23;922;-66
2022/08/02 10:29:16;;;;;;;;;;;22.50;56.20;;;;;;6213844;23;1900;-66
2022/08/02 10:31:43;;;;;;;;;;;22.50;56.40;;;;;;6214175;23;922;-65
2022/08/02 10:34:11;;;;;;;;;;;22.50;56.60;;;;;;6213495;23;999;-66
2022/08/02 10:36:38;;;;;;;;;;;22.50;56.90;;;;;;6207548;23;1184;-65
2022/08/02 10:39:03;;;;;;;;;;;22.50;57.10;;;;;;6212890;23;1025;-65
2022/08/02 10:41:49;;;;;;;;;;;22.50;57.20;;;;;;6211482;23;852;-65
2022/08/02 10:44:21;;;;;;;;;;;22.60;56.60;;;;;;6213086;23;1162;-65
2022/08/02 10:46:47;;;;;;;;;;;22.60;56.80;;;;;;6213864;23;709;-65
2022/08/02 10:49:13;;;;;;;;;;;22.60;57.00;;;;;;6211936;23;1888;-66
2022/08/02 10:52:05;;;;;;;;;;;22.50;57.20;;;;;;6212200;23;819;-67
2022/08/02 10:54:30;;;;;;;;;;;22.60;57.40;;;;;;6208516;23;1203;-67
2022/08/02 10:56:56;;;;;;;;;;;22.60;58.20;;;;;;6213315;23;843;-67
2022/08/02 10:59:23;;;;;;;;;;;22.50;58.40;;;;;;6212892;23;824;-66
2022/08/02 11:01:48;;;;;;;;;;;22.50;58.10;;;;;;6214400;23;851;-65
2022/08/02 11:04:14;;;;;;;;;;;22.50;57.80;;;;;;6215234;23;745;-66
2022/08/02 11:06:58;;;;;;;;;;;22.50;57.60;;;;;;6214241;23;1297;-65
2022/08/02 11:09:26;;;;;;;;;;;22.50;58.30;;;;;;6214305;23;1936;-65
2022/08/02 11:11:59;;;;;;;;;;;22.50;58.00;;;;;;6214813;23;827;-65
2022/08/02 11:14:24;;;;;;;;;;;22.50;58.20;;;;;;6214825;23;1292;-66
2022/08/02 11:17:16;;;;;;;;;;;22.50;57.60;;;;;;6214186;23;911;-65
2022/08/02 11:20:00;;;;;;;;;;;22.50;57.40;;;;;;6214978;23;1017;-66
2022/08/02 11:22:25;;;;;;;;;;;22.50;57.50;;;;;;6214899;23;1010;-65
2022/08/02 11:24:51;;;;;;;;;;;22.50;57.40;;;;;;6213061;23;1204;-66
2022/08/02 11:27:17;;;;;;;;;;;22.50;57.50;;;;;;6214632;23;865;-66
2022/08/02 11:29:44;;;;;;;;;;;22.50;58.10;;;;;;6212772;23;1940;-66
2022/08/02 11:32:16;;;;;;;;;;;22.60;58.10;;;;;;6214229;23;829;-65
2022/08/02 11:34:42;;;;;;;;;;;22.50;58.00;;;;;;6187987;23;1361;-65
2022/08/02 11:37:08;;;;;;;;;;;22.60;57.40;;;;;;6187648;23;825;-65
2022/08/02 11:39:33;;;;;;;;;;;22.60;56.40;;;;;;6214617;23;820;-65
2022/08/02 11:41:59;;;;;;;;;;;22.60;56.40;;;;;;6214412;23;696;-65
2022/08/02 11:44:24;;;;;;;;;;;22.70;56.00;;;;;;6214921;23;1281;-65
2022/08/02 11:46:54;;;;;;;;;;;22.70;56.30;;;;;;6213137;23;978;-65
2022/08/02 11:49:19;;;;;;;;;;;22.70;55.30;;;;;;6213052;23;1924;-65
2022/08/02 11:52:06;;;;;;;;;;;22.70;55.00;;;;;;6215794;23;998;-66
2022/08/02 11:54:39;;;;;;;;;;;22.70;54.90;;;;;;6215483;23;1333;-65
2022/08/02 11:57:08;;;;;;;;;;;22.70;54.70;;;;;;6215186;23;808;-66
2022/08/02 11:59:36;;;;;;;;;;;22.70;54.60;;;;;;6216483;23;1069;-66
2022/08/02 12:02:03;;;;;;;;;;;22.70;54.50;;;;;;6215893;23;954;-66
2022/08/02 12:04:28;;;;;;;;;;;22.70;54.50;;;;;;6215977;23;1289;-65
2022/08/02 12:06:54;;;;;;;;;;;22.70;54.80;;;;;;6216659;23;912;-65
2022/08/02 12:09:21;;;;;;;;;;;22.70;54.50;;;;;;6214904;23;1885;-65
2022/08/02 12:11:47;;;;;;;;;;;22.70;55.00;;;;;;6215503;23;836;-65
2022/08/02 12:14:13;;;;;;;;;;;22.80;54.80;;;;;;6216099;23;789;-65
2022/08/02 12:19:25;;;;;;;;;;;22.70;55.30;;;;;;6215992;23;591;-66
2022/08/02 12:22:09;;;;;;;;;;;22.80;55.20;;;;;;6214850;23;863;-65
2022/08/02 12:24:35;;;;;;;;;;;22.90;55.40;;;;;;6216072;23;1326;-66
2022/08/02 12:27:00;;;;;;;;;;;22.90;55.00;;;;;;6193210;23;3739;-67
2022/08/02 12:29:29;;;;;;;;;;;22.80;54.10;;;;;;6186858;23;1900;-66
2022/08/02 12:31:55;;;;;;;;;;;22.80;54.00;;;;;;6186416;23;759;-66
2022/08/02 12:34:21;;;;;;;;;;;22.90;54.50;;;;;;6186575;23;858;-67
2022/08/02 12:37:15;;;;;;;;;;;22.90;54.60;;;;;;6186524;23;1289;-67
2022/08/02 12:39:42;;;;;;;;;;;22.80;54.20;;;;;;6153385;23;1185;-67
2022/08/02 12:42:08;;;;;;;;;;;22.90;53.70;;;;;;6186362;23;756;-67
2022/08/02 12:44:35;;;;;;;;;;;22.90;51.60;;;;;;6185139;23;867;-68
2022/08/02 12:47:01;;;;;;;;;;;22.90;53.00;;;;;;6184977;23;1387;-68
2022/08/02 12:49:26;;;;;;;;;;;23.00;52.70;;;;;;6184701;23;2204;-68
2022/08/02 12:51:52;;;;;;;;;;;23.00;52.40;;;;;;6184532;23;1315;-68
2022/08/02 12:54:19;;;;;;;;;;;23.00;52.10;;;;;;6185020;23;825;-69
2022/08/02 12:56:45;;;;;;;;;;;23.00;51.80;;;;;;6184544;23;1184;-68
2022/08/02 12:59:10;;;;;;;;;;;23.00;52.40;;;;;;6186706;23;824;-67
2022/08/02 13:01:36;;;;;;;;;;;23.00;52.40;;;;;;6184074;23;792;-67
2022/08/02 13:04:01;;;;;;;;;;;23.00;53.00;;;;;;6185907;23;800;-68
2022/08/02 13:06:27;;;;;;;;;;;23.00;53.00;;;;;;6184775;23;1258;-68
2022/08/02 13:08:57;;;;;;;;;;;23.10;52.70;;;;;;6186044;23;1922;-69
2022/08/02 13:11:22;;;;;;;;;;;23.10;53.10;;;;;;6186049;23;820;-68
2022/08/02 13:13:48;;;;;;;;;;;23.10;52.10;;;;;;6186286;23;765;-68
2022/08/02 13:16:13;;;;;;;;;;;23.10;51.50;;;;;;6186159;23;1204;-69
2022/08/02 13:18:39;;;;;;;;;;;23.10;53.00;;;;;;6184150;23;923;-67
2022/08/02 13:21:05;;;;;;;;;;;23.10;52.80;;;;;;6159300;23;1340;-68
2022/08/02 13:23:31;;;;;;;;;;;23.20;53.10;;;;;;6186211;23;828;-67
2022/08/02 13:25:56;;;;;;;;;;;23.20;53.80;;;;;;6159414;23;1247;-67
2022/08/02 13:28:22;;;;;;;;;;;23.10;54.60;;;;;;6185723;23;1892;-67
2022/08/02 13:30:48;;;;;;;;;;;23.10;55.20;;;;;;6184438;23;872;-68
2022/08/02 13:33:13;;;;;;;;;;;23.00;55.90;;;;;;6185724;23;931;-67
2022/08/02 13:35:38;;;;;;;;;;;23.00;56.50;;;;;;6184371;23;1318;-67
2022/08/02 13:38:05;;;;;;;;;;;23.00;57.00;;;;;;6185744;23;880;-67
2022/08/02 13:40:31;;;;;;;;;;;22.90;57.20;;;;;;6185752;23;831;-66
2022/08/02 13:42:56;;;;;;;;;;;22.80;57.70;;;;;;6185965;23;1001;-67
2022/08/02 13:45:22;;;;;;;;;;;22.90;58.00;;;;;;6185863;23;1199;-68
2022/08/02 13:47:48;;;;;;;;;;;22.80;58.20;;;;;;6181550;23;1136;-67
2022/08/02 13:50:13;;;;;;;;;;;22.80;58.40;;;;;;6185328;23;1924;-67
2022/08/02 13:52:39;;;;;;;;;;;22.70;58.60;;;;;;6183876;23;924;-68
2022/08/02 13:55:05;;;;;;;;;;;22.70;58.70;;;;;;6182974;23;1223;-67
2022/08/02 13:57:30;;;;;;;;;;;22.70;59.10;;;;;;6185070;23;1228;-67
2022/08/02 13:59:55;;;;;;;;;;;22.70;59.10;;;;;;6185890;23;825;-67
2022/08/02 14:02:21;;;;;;;;;;;22.70;59.30;;;;;;6183514;23;797;-67
2022/08/02 14:04:47;;;;;;;;;;;22.70;59.30;;;;;;6184260;23;815;-68
2022/08/02 14:07:12;;;;;;;;;;;22.70;59.90;;;;;;6184312;23;1189;-68
2022/08/02 14:09:37;;;;;;;;;;;22.70;60.20;;;;;;6184082;23;1927;-68
2022/08/02 14:12:03;;;;;;;;;;;22.70;60.00;;;;;;6184121;23;956;-69
2022/08/02 14:14:29;;;;;;;;;;;22.60;60.20;;;;;;6158691;23;1210;-70
2022/08/02 14:16:54;;;;;;;;;;;22.60;60.40;;;;;;6183585;23;1255;-70
2022/08/02 14:19:23;;;;;;;;;;;22.60;60.20;;;;;;6159085;23;1190;-70
2022/08/02 14:21:48;;;;;;;;;;;22.60;60.40;;;;;;6159447;23;1358;-70
2022/08/02 14:24:18;;;;;;;;;;;22.60;61.20;;;;;;6184131;23;859;-69
2022/08/02 14:26:43;;;;;;;;;;;22.60;60.70;;;;;;6183424;23;1287;-70
2022/08/02 14:29:09;;;;;;;;;;;22.60;60.60;;;;;;6183889;23;1900;-70
2022/08/02 14:31:34;;;;;;;;;;;22.60;60.50;;;;;;6183457;23;915;-69
2022/08/02 14:34:00;;;;;;;;;;;22.60;60.70;;;;;;6184250;23;863;-67
2022/08/02 14:36:25;;;;;;;;;;;22.60;60.90;;;;;;6183590;23;1303;-67